Time;durP1;ratioP1;P1;durP2;ratioP2;P2;SDS_P1;SDS_P2;PMS_P1;PMS_P2;Temp;Humidity;BMP_temperature;BMP_pressure;BME280_temperature;BME280_humidity;BME280_pressure;Samples;Min_cycle;Max_cycle;Signal;HPM_P1;HPM_P2
2020/12/22 00:00:07;;;;;;;49.13;22.93;;;;;;;1.57;77.01;99811.59;125855;1101;104410;-73
2020/12/22 00:02:54;;;;;;;47.07;24.00;;;;;;;1.56;76.94;99808.99;125855;1101;105744;-73
2020/12/22 00:05:21;;;;;;;46.33;21.42;;;;;;;1.54;76.73;99803.80;125822;1101;104415;-74
2020/12/22 00:07:47;;;;;;;51.53;23.87;;;;;;;1.52;76.86;99808.22;125809;1101;104581;-73
2020/12/22 00:10:15;;;;;;;54.15;27.00;;;;;;;1.51;76.85;99809.11;125832;1101;104478;-74
2020/12/22 00:12:42;;;;;;;50.53;24.50;;;;;;;1.55;77.20;99804.64;126036;1101;104531;-74
2020/12/22 00:15:10;;;;;;;49.33;25.10;;;;;;;1.58;77.06;99815.06;125858;1101;104560;-73
2020/12/22 00:17:43;;;;;;;53.92;26.42;;;;;;;1.58;77.17;99809.82;126688;1101;104455;-74
2020/12/22 00:20:12;;;;;;;52.20;25.57;;;;;;;1.56;76.58;99807.25;127801;1101;102718;-74
2020/12/22 00:22:39;;;;;;;53.23;25.73;;;;;;;1.57;77.22;99814.22;125844;1101;104445;-75
2020/12/22 00:25:06;;;;;;;56.63;26.37;;;;;;;1.61;77.26;99810.63;125908;1101;104443;-74
2020/12/22 00:27:33;;;;;;;54.90;27.87;;;;;;;1.66;76.63;99807.88;125872;1101;104561;-73
2020/12/22 00:30:02;;;;;;;55.30;28.00;;;;;;;1.72;76.79;99806.86;125830;1101;104449;-73
2020/12/22 00:32:32;;;;;;;53.87;25.50;;;;;;;1.69;76.97;99807.81;125866;1096;104481;-74
2020/12/22 00:35:00;;;;;;;55.10;25.23;;;;;;;1.59;77.11;99798.44;125875;1101;104550;-74
2020/12/22 00:37:28;;;;;;;54.60;24.80;;;;;;;1.49;76.51;99803.05;125813;1101;104551;-73
2020/12/22 00:39:55;;;;;;;52.40;26.80;;;;;;;1.45;76.44;99807.48;125868;1101;104442;-74
2020/12/22 00:42:21;;;;;;;52.57;25.70;;;;;;;1.47;76.58;99805.69;125869;1101;104922;-73
2020/12/22 00:44:48;;;;;;;54.90;25.93;;;;;;;1.44;76.67;99813.62;125883;1101;104472;-72
2020/12/22 00:47:15;;;;;;;58.65;28.35;;;;;;;1.39;76.98;99804.14;125858;1101;104460;-72
2020/12/22 00:49:42;;;;;;;52.50;24.87;;;;;;;1.35;76.78;99800.75;125938;1093;104499;-72
2020/12/22 00:52:09;;;;;;;51.60;26.30;;;;;;;1.31;77.01;99801.71;125836;1101;104440;-72
2020/12/22 00:54:36;;;;;;;54.13;25.70;;;;;;;1.27;76.66;99797.44;125816;1101;104500;-71
2020/12/22 00:57:03;;;;;;;56.07;26.17;;;;;;;1.28;77.18;99800.00;125793;1101;104538;-72
2020/12/22 00:59:30;;;;;;;55.80;26.48;;;;;;;1.27;76.85;99794.81;125850;1101;104414;-73
2020/12/22 01:02:04;;;;;;;53.77;26.67;;;;;;;1.24;76.69;99792.26;125819;1101;104942;-72
2020/12/22 01:04:31;;;;;;;58.63;28.43;;;;;;;1.22;76.88;99794.93;125770;1102;104548;-73
2020/12/22 01:06:58;;;;;;;48.33;24.33;;;;;;;1.21;76.74;99780.10;125860;1101;104450;-72
2020/12/22 01:09:25;;;;;;;54.97;26.67;;;;;;;1.14;76.85;99775.89;125787;1101;104548;-72
2020/12/22 01:11:52;;;;;;;51.57;25.03;;;;;;;1.08;76.72;99765.55;125879;1093;104446;-72
2020/12/22 01:14:19;;;;;;;48.30;23.93;;;;;;;1.02;76.86;99764.78;125808;1101;104570;-72
2020/12/22 01:16:47;;;;;;;49.38;23.40;;;;;;;0.98;76.96;99763.13;125847;1101;104526;-72
2020/12/22 01:19:14;;;;;;;43.80;21.67;;;;;;;0.99;76.80;99762.23;125822;1101;104448;-72
2020/12/22 01:21:41;;;;;;;45.75;20.72;;;;;;;0.98;77.28;99763.13;125954;1101;104500;-73
2020/12/22 01:24:08;;;;;;;41.90;19.85;;;;;;;1.04;76.95;99746.39;125832;1101;104675;-73
2020/12/22 01:26:34;;;;;;;39.57;18.40;;;;;;;1.04;76.72;99738.53;125835;1101;104446;-73
2020/12/22 01:29:03;;;;;;;41.87;17.73;;;;;;;1.03;76.93;99747.28;125840;1101;104420;-73
2020/12/22 01:31:31;;;;;;;44.90;19.93;;;;;;;1.03;77.21;99749.91;125817;1101;104913;-74
2020/12/22 01:33:58;;;;;;;41.80;19.20;;;;;;;1.07;77.23;99738.46;125816;1101;105016;-72
2020/12/22 01:36:26;;;;;;;40.27;18.23;;;;;;;1.13;76.90;99735.70;125820;1102;104487;-73
2020/12/22 01:38:53;;;;;;;34.20;15.70;;;;;;;1.15;77.22;99725.20;125876;1101;104548;-73
2020/12/22 01:41:21;;;;;;;33.00;15.70;;;;;;;1.21;77.34;99727.69;125885;1102;104548;-72
2020/12/22 01:44:20;;;;;;;32.03;14.63;;;;;;;1.25;76.88;99737.17;125848;1102;104510;-72
2020/12/22 01:46:49;;;;;;;33.07;16.10;;;;;;;1.32;77.46;99728.27;125635;1101;104420;-73
2020/12/22 01:49:24;;;;;;;31.13;13.77;;;;;;;1.39;77.57;99726.38;125856;1101;104592;-72
2020/12/22 01:51:55;;;;;;;30.95;13.80;;;;;;;1.43;77.37;99722.75;125780;1101;104523;-72
2020/12/22 01:54:23;;;;;;;29.93;12.93;;;;;;;1.48;77.39;99714.80;125864;1101;104420;-72
2020/12/22 01:56:51;;;;;;;29.57;13.83;;;;;;;1.51;77.41;99712.09;125896;1101;104872;-72
2020/12/22 01:59:19;;;;;;;28.83;13.00;;;;;;;1.54;77.16;99704.16;125901;1096;104417;-72
2020/12/22 02:01:48;;;;;;;26.67;10.97;;;;;;;1.59;77.59;99702.28;125852;1101;104577;-73
2020/12/22 02:04:15;;;;;;;29.13;13.53;;;;;;;1.61;77.25;99697.86;125776;1101;104423;-72
2020/12/22 02:06:43;;;;;;;26.90;12.97;;;;;;;1.64;77.56;99692.51;126146;1101;104710;-73
2020/12/22 02:09:11;;;;;;;27.75;12.88;;;;;;;1.70;77.38;99695.87;125829;1101;104423;-73
2020/12/22 02:11:39;;;;;;;30.60;12.33;;;;;;;1.75;77.26;99694.00;125827;1101;104448;-74
2020/12/22 02:14:10;;;;;;;29.93;12.30;;;;;;;1.78;77.26;99683.42;126087;1101;104647;-73
2020/12/22 02:16:38;;;;;;;27.90;12.27;;;;;;;1.82;77.90;99686.84;125806;1101;104587;-73
2020/12/22 02:19:23;;;;;;;28.23;11.97;;;;;;;1.84;77.42;99678.02;125868;1101;104442;-72
2020/12/22 02:21:50;;;;;;;27.15;12.00;;;;;;;1.88;76.90;99682.28;125944;1101;104913;-72
2020/12/22 02:24:17;;;;;;;28.03;12.10;;;;;;;1.89;77.39;99684.00;125815;1101;104474;-72
2020/12/22 02:26:44;;;;;;;29.20;12.00;;;;;;;1.90;77.25;99680.48;125861;1101;104551;-72
2020/12/22 02:29:10;;;;;;;27.30;12.00;;;;;;;1.93;77.64;99677.78;125805;1101;104439;-72
2020/12/22 02:31:38;;;;;;;26.37;12.23;;;;;;;1.96;77.39;99666.32;125830;1102;104453;-72
2020/12/22 02:34:06;;;;;;;23.43;10.70;;;;;;;1.99;77.23;99658.36;125846;1101;104501;-73
2020/12/22 02:36:33;;;;;;;24.27;11.23;;;;;;;2.00;76.96;99656.63;125850;1101;104542;-72
2020/12/22 02:39:02;;;;;;;24.73;10.73;;;;;;;2.03;77.03;99646.88;125886;1101;104561;-72
2020/12/22 02:41:29;;;;;;;28.90;11.97;;;;;;;2.03;77.51;99649.51;126505;1101;104481;-73
2020/12/22 02:43:56;;;;;;;25.13;11.50;;;;;;;2.02;77.34;99652.19;125835;1101;104439;-73
2020/12/22 02:46:23;;;;;;;23.03;9.83;;;;;;;2.02;77.98;99642.53;125806;1093;104439;-73
2020/12/22 02:48:50;;;;;;;26.60;10.90;;;;;;;2.00;77.32;99630.38;125839;1101;104437;-73
2020/12/22 02:51:17;;;;;;;28.77;11.50;;;;;;;2.01;77.10;99635.57;125818;1101;104573;-72
2020/12/22 02:53:44;;;;;;;28.23;11.75;;;;;;;2.00;77.64;99628.60;125986;1101;104522;-72
2020/12/22 02:56:11;;;;;;;29.47;13.33;;;;;;;2.03;77.09;99638.17;125810;1101;104490;-72
2020/12/22 02:58:38;;;;;;;31.70;13.40;;;;;;;2.09;77.60;99635.34;125876;1102;104452;-72
2020/12/22 03:01:06;;;;;;;30.27;13.43;;;;;;;2.14;77.08;99629.98;125903;1101;104551;-74
2020/12/22 03:03:33;;;;;;;28.27;12.88;;;;;;;2.14;76.87;99622.95;125836;1101;104551;-72
2020/12/22 03:06:00;;;;;;;27.13;12.43;;;;;;;2.15;77.08;99623.83;125936;1101;104599;-73
2020/12/22 03:08:27;;;;;;;26.77;12.27;;;;;;;2.17;77.56;99620.23;125894;1101;104427;-73
2020/12/22 03:10:54;;;;;;;27.53;12.57;;;;;;;2.16;77.24;99610.64;125867;1101;104900;-73
2020/12/22 03:13:21;;;;;;;28.00;12.70;;;;;;;2.16;77.66;99602.77;125908;1101;104657;-73
2020/12/22 03:15:48;;;;;;;26.67;11.80;;;;;;;2.19;77.38;99604.45;125894;1101;104506;-72
2020/12/22 03:18:18;;;;;;;27.10;10.80;;;;;;;2.22;77.42;99605.22;125846;1101;104977;-72
2020/12/22 03:20:46;;;;;;;31.67;13.33;;;;;;;2.24;77.68;99599.94;125816;1101;104443;-73
2020/12/22 03:23:14;;;;;;;26.60;11.73;;;;;;;2.28;78.10;99592.81;125846;1101;104420;-73
2020/12/22 03:25:41;;;;;;;25.97;11.80;;;;;;;2.31;76.86;99577.81;125811;1101;104526;-73
2020/12/22 03:28:08;;;;;;;26.40;11.12;;;;;;;2.32;77.14;99570.82;125851;1101;104946;-72
2020/12/22 03:30:35;;;;;;;27.63;12.67;;;;;;;2.31;77.16;99558.59;125825;1102;104520;-73
2020/12/22 03:33:02;;;;;;;26.37;12.78;;;;;;;2.30;77.14;99560.34;125848;1101;104445;-73
2020/12/22 03:35:30;;;;;;;28.20;12.90;;;;;;;2.30;77.54;99552.47;125862;1097;104547;-73
2020/12/22 03:37:58;;;;;;;26.57;11.87;;;;;;;2.31;77.23;99548.94;125864;1101;104605;-74
2020/12/22 03:40:26;;;;;;;26.97;12.50;;;;;;;2.34;77.61;99550.63;125831;1101;104449;-74
2020/12/22 03:42:54;;;;;;;27.37;11.80;;;;;;;2.36;77.68;99554.91;125842;1101;104414;-74
2020/12/22 03:45:22;;;;;;;25.67;11.47;;;;;;;2.38;77.96;99555.73;125822;1101;104499;-74
2020/12/22 03:47:49;;;;;;;27.60;11.93;;;;;;;2.40;77.30;99553.07;125890;1101;104977;-74
2020/12/22 03:50:24;;;;;;;28.03;12.77;;;;;;;2.44;77.71;99545.94;125902;1101;104475;-73
2020/12/22 03:52:51;;;;;;;29.93;13.67;;;;;;;2.51;77.22;99545.69;125902;1101;104496;-72
2020/12/22 03:55:18;;;;;;;26.60;11.93;;;;;;;2.58;77.57;99554.25;125839;1101;104455;-72
2020/12/22 03:57:45;;;;;;;31.03;14.53;;;;;;;2.57;77.49;99549.91;125943;1101;104430;-73
2020/12/22 04:00:14;;;;;;;25.63;11.10;;;;;;;2.58;77.73;99543.74;125840;1101;104586;-72
2020/12/22 04:02:41;;;;;;;29.13;12.40;;;;;;;2.57;77.15;99544.66;125871;1101;104977;-74
2020/12/22 04:05:09;;;;;;;28.10;12.53;;;;;;;2.58;77.99;99537.62;125871;1101;104465;-74
2020/12/22 04:07:37;;;;;;;27.10;11.17;;;;;;;2.59;77.42;99534.95;125820;1102;104469;-74
2020/12/22 04:10:06;;;;;;;30.30;13.77;;;;;;;2.59;77.60;99529.70;125999;1093;104554;-74
2020/12/22 04:12:34;;;;;;;27.77;13.23;;;;;;;2.64;77.21;99537.42;125836;1101;104426;-73
2020/12/22 04:15:01;;;;;;;29.70;13.87;;;;;;;2.66;77.96;99543.48;125799;1093;104555;-73
2020/12/22 04:17:28;;;;;;;25.80;11.57;;;;;;;2.69;77.59;99527.63;125835;1101;104870;-73
2020/12/22 04:19:55;;;;;;;28.00;13.00;;;;;;;2.65;77.88;99521.59;125789;1102;104485;-73
2020/12/22 04:22:22;;;;;;;29.70;13.50;;;;;;;2.62;77.93;99511.22;125892;1101;104417;-73
2020/12/22 04:24:49;;;;;;;26.30;12.10;;;;;;;2.62;77.84;99507.72;125849;1101;104583;-74
2020/12/22 04:27:16;;;;;;;25.60;11.97;;;;;;;2.61;77.71;99506.00;125829;1101;104455;-72
2020/12/22 04:29:44;;;;;;;27.30;12.85;;;;;;;2.59;77.08;99507.81;125844;1101;104548;-72
2020/12/22 04:32:11;;;;;;;29.17;13.13;;;;;;;2.60;77.39;99512.16;125830;1101;104564;-73
2020/12/22 04:34:38;;;;;;;29.23;12.40;;;;;;;2.60;77.73;99523.55;125945;1101;104414;-72
2020/12/22 04:37:06;;;;;;;29.50;12.57;;;;;;;2.61;77.56;99516.51;125822;1102;104553;-74
2020/12/22 04:39:33;;;;;;;28.67;12.83;;;;;;;2.64;77.10;99504.15;125853;1102;104917;-78
2020/12/22 04:42:03;;;;;;;27.67;12.53;;;;;;;2.70;77.67;99504.83;125848;1101;104607;-74
2020/12/22 04:44:31;;;;;;;29.27;13.20;;;;;;;2.75;77.66;99502.91;125877;1101;104478;-76
2020/12/22 04:46:59;;;;;;;28.35;13.40;;;;;;;2.75;77.26;99503.78;125661;1096;103282;-72
2020/12/22 04:49:31;;;;;;;26.53;12.23;;;;;;;2.72;76.86;99496.00;125946;1101;105090;-71
2020/12/22 04:51:58;;;;;;;28.07;12.23;;;;;;;2.68;76.80;99489.14;125827;1101;104416;-73
2020/12/22 04:54:33;;;;;;;27.60;11.83;;;;;;;2.66;77.40;99481.28;126493;1101;104541;-71
2020/12/22 04:57:05;;;;;;;25.30;11.13;;;;;;;2.64;76.68;99470.01;125747;1101;104442;-73
2020/12/22 04:59:37;;;;;;;27.20;12.65;;;;;;;2.65;77.77;99479.57;126714;1101;104532;-74
2020/12/22 05:02:07;;;;;;;29.30;12.57;;;;;;;2.68;77.07;99476.00;125870;1096;104465;-72
2020/12/22 05:04:36;;;;;;;30.83;12.67;;;;;;;2.71;77.26;99475.02;125825;1101;104423;-73
2020/12/22 05:07:05;;;;;;;30.17;13.97;;;;;;;2.72;77.25;99468.86;125795;1096;104583;-77
2020/12/22 05:09:33;;;;;;;29.63;13.30;;;;;;;2.71;77.40;99465.39;125866;1096;104599;-76
2020/12/22 05:12:00;;;;;;;28.93;12.63;;;;;;;2.68;77.60;99457.61;125966;1096;104419;-74
2020/12/22 05:14:29;;;;;;;27.13;12.23;;;;;;;2.63;77.16;99452.53;125749;1096;104488;-72
2020/12/22 05:16:57;;;;;;;27.43;12.03;;;;;;;2.59;77.17;99442.16;125817;1096;104605;-74
2020/12/22 05:19:25;;;;;;;26.63;11.47;;;;;;;2.55;77.75;99451.92;125853;1101;104482;-75
2020/12/22 05:21:55;;;;;;;26.67;12.43;;;;;;;2.55;76.84;99449.30;125851;1101;104923;-77
2020/12/22 05:24:24;;;;;;;29.55;13.60;;;;;;;2.58;77.09;99441.31;125714;1093;104583;-75
2020/12/22 05:26:51;;;;;;;28.53;13.77;;;;;;;2.56;77.08;99447.52;126019;1096;104475;-76
2020/12/22 05:29:19;;;;;;;27.30;12.20;;;;;;;2.57;77.14;99450.11;125728;1094;104446;-76
2020/12/22 05:31:49;;;;;;;25.73;11.27;;;;;;;2.58;77.20;99440.44;125650;1093;104917;-73
2020/12/22 05:34:20;;;;;;;28.63;12.83;;;;;;;2.58;77.10;99449.20;125697;1102;104513;-73
2020/12/22 05:36:48;;;;;;;28.97;14.30;;;;;;;2.57;77.93;99450.11;125766;1096;104542;-73
2020/12/22 05:39:18;;;;;;;32.70;14.70;;;;;;;2.60;77.08;99460.51;125716;1101;104529;-73
2020/12/22 05:41:46;;;;;;;30.93;13.60;;;;;;;2.63;78.01;99454.28;125805;1101;104901;-72
2020/12/22 05:44:13;;;;;;;31.47;13.33;;;;;;;2.64;77.54;99456.00;125706;1101;104476;-72
2020/12/22 05:46:42;;;;;;;29.98;14.28;;;;;;;2.65;77.79;99461.19;125691;1101;104452;-73
2020/12/22 05:49:14;;;;;;;;;;;;;;;2.65;76.80;99460.34;125786;1101;104429;-76
2020/12/22 05:51:44;;;;;;;27.97;12.73;;;;;;;2.65;77.29;99455.94;125681;1101;104420;-71
2020/12/22 05:54:14;;;;;;;31.23;14.40;;;;;;;2.66;77.40;99448.92;125694;1101;104532;-71
2020/12/22 05:56:41;;;;;;;28.03;11.73;;;;;;;2.66;76.86;99455.02;125685;1101;104406;-71
2020/12/22 05:59:21;;;;;;;29.23;12.57;;;;;;;2.66;77.49;99448.92;125679;1101;104465;-72
2020/12/22 06:01:48;;;;;;;28.40;12.90;;;;;;;2.69;77.43;99443.57;125687;1094;104433;-71
2020/12/22 06:04:18;;;;;;;27.37;13.20;;;;;;;2.64;77.54;99443.74;125707;1101;104442;-71
2020/12/22 06:06:47;;;;;;;32.10;15.70;;;;;;;2.60;77.00;99430.74;125724;1101;104843;-71
2020/12/22 06:09:15;;;;;;;27.93;13.07;;;;;;;2.60;76.90;99433.38;125911;1101;104873;-71
2020/12/22 06:11:59;;;;;;;35.97;16.13;;;;;;;2.64;77.57;99440.23;125734;1101;104468;-70
2020/12/22 06:14:31;;;;;;;31.97;14.13;;;;;;;2.66;77.85;99428.75;125670;1101;104417;-70
2020/12/22 06:17:05;;;;;;;28.17;12.07;;;;;;;2.68;76.92;99421.68;125697;1101;104544;-70
2020/12/22 06:19:36;;;;;;;26.73;12.07;;;;;;;2.72;77.36;99418.95;125636;1101;104461;-71
2020/12/22 06:22:06;;;;;;;31.40;13.87;;;;;;;2.67;77.21;99406.83;125622;1101;104627;-70
2020/12/22 06:24:34;;;;;;;30.07;14.07;;;;;;;2.60;76.58;99413.23;127866;1101;102462;-70
2020/12/22 06:27:06;;;;;;;31.15;14.55;;;;;;;2.58;76.92;99404.55;126423;1093;104519;-68
2020/12/22 06:29:35;;;;;;;30.23;13.60;;;;;;;2.56;77.29;99403.74;125883;1101;104424;-70
2020/12/22 06:32:25;;;;;;;29.40;14.23;;;;;;;2.62;77.52;99413.16;125889;1101;104607;-70
2020/12/22 06:34:55;;;;;;;33.00;15.40;;;;;;;2.66;77.19;99420.88;125806;1093;104438;-70
2020/12/22 06:37:39;;;;;;;33.43;15.47;;;;;;;2.72;77.54;99425.08;125813;1093;104526;-70
2020/12/22 06:40:09;;;;;;;32.00;14.43;;;;;;;2.72;76.96;99429.45;125942;1093;104573;-69
2020/12/22 06:42:38;;;;;;;30.47;15.87;;;;;;;2.74;77.34;99433.77;125835;1093;104436;-77
2020/12/22 06:45:24;;;;;;;32.87;15.57;;;;;;;2.77;77.24;99425.78;125728;1093;104887;-72
2020/12/22 06:47:53;;;;;;;31.60;15.00;;;;;;;2.80;77.26;99420.42;125560;1093;104436;-73
2020/12/22 06:50:43;;;;;;;31.67;14.87;;;;;;;2.81;77.37;99408.13;125649;1093;104503;-70
2020/12/22 06:53:34;;;;;;;32.73;14.30;;;;;;;2.78;76.77;99406.48;125542;1101;104426;-72
2020/12/22 06:56:02;;;;;;;28.57;11.77;;;;;;;2.78;76.80;99405.61;125645;1093;104522;-74
2020/12/22 06:58:34;;;;;;;31.20;14.50;;;;;;;2.78;77.23;99393.34;125438;1093;104459;-73
2020/12/22 07:01:26;;;;;;;30.07;13.07;;;;;;;2.74;76.87;99394.36;126995;1102;104471;-74
2020/12/22 07:04:10;;;;;;;29.47;13.70;;;;;;;2.72;77.61;99396.19;125922;1101;104577;-74
2020/12/22 07:06:47;;;;;;;31.90;15.00;;;;;;;2.72;77.35;99388.30;125949;1101;104577;-73
2020/12/22 07:09:16;;;;;;;29.73;13.43;;;;;;;2.71;76.92;99385.72;126042;1093;104436;-74
2020/12/22 07:11:45;;;;;;;31.40;15.23;;;;;;;2.74;77.17;99386.48;126033;1101;104471;-74
2020/12/22 07:14:23;;;;;;;30.90;14.57;;;;;;;2.78;77.51;99380.20;125973;1096;104503;-74
2020/12/22 07:16:56;;;;;;;33.40;15.40;;;;;;;2.79;77.35;99384.55;126021;1101;104561;-73
2020/12/22 07:19:28;;;;;;;27.77;12.10;;;;;;;2.83;76.46;99382.66;126014;1102;104417;-72
2020/12/22 07:22:05;;;;;;;30.53;13.97;;;;;;;2.85;76.43;99393.13;125996;1101;104560;-74
2020/12/22 07:24:35;;;;;;;28.90;12.90;;;;;;;2.86;76.90;99397.44;126074;1101;104548;-73
2020/12/22 07:27:03;;;;;;;35.33;14.83;;;;;;;2.87;77.31;99397.41;126010;1101;104484;-73
2020/12/22 07:29:30;;;;;;;29.57;12.63;;;;;;;2.91;76.82;99391.13;126012;1101;104701;-74
2020/12/22 07:32:00;;;;;;;27.87;11.77;;;;;;;2.92;76.93;99377.08;126029;1102;104606;-75
2020/12/22 07:34:27;;;;;;;30.10;13.73;;;;;;;2.93;76.57;99368.28;125953;1096;104595;-75
2020/12/22 07:37:06;;;;;;;30.93;15.27;;;;;;;2.97;76.69;99382.16;125932;1102;104552;-73
2020/12/22 07:39:34;;;;;;;30.20;14.63;;;;;;;2.97;77.06;99364.63;125941;1101;104599;-72
2020/12/22 07:42:14;;;;;;;31.57;14.50;;;;;;;2.95;77.23;99363.83;125952;1102;104522;-74
2020/12/22 07:44:44;;;;;;;30.17;13.07;;;;;;;2.94;77.08;99367.38;126393;1101;104838;-74
2020/12/22 07:47:13;;;;;;;26.10;11.37;;;;;;;3.01;76.71;99361.89;125829;1093;103252;-74
2020/12/22 07:49:42;;;;;;;27.93;12.73;;;;;;;3.08;76.95;99368.61;125701;1093;104420;-74
2020/12/22 07:52:19;;;;;;;29.30;13.10;;;;;;;3.09;77.33;99372.95;125620;1093;104480;-76
2020/12/22 07:54:57;;;;;;;28.70;13.70;;;;;;;3.17;76.72;99384.05;125691;1097;104526;-74
2020/12/22 07:57:26;;;;;;;31.80;13.70;;;;;;;3.24;77.09;99384.70;125692;1095;104576;-75
2020/12/22 08:00:07;;;;;;;28.57;12.70;;;;;;;3.28;76.90;99392.41;125812;1093;104421;-73
2020/12/22 08:02:35;;;;;;;27.97;11.73;;;;;;;3.32;76.64;99385.24;125664;1093;104455;-74
2020/12/22 08:05:13;;;;;;;27.80;12.33;;;;;;;3.33;77.14;99368.55;125583;1093;104442;-72
2020/12/22 08:07:47;;;;;;;25.90;11.93;;;;;;;3.38;76.76;99374.49;127263;1096;102438;-74
2020/12/22 08:10:15;;;;;;;24.87;11.70;;;;;;;3.43;76.48;99369.92;125660;1096;104526;-74
2020/12/22 08:12:50;;;;;;;26.00;11.43;;;;;;;3.47;76.69;99368.02;125725;1097;104420;-74
2020/12/22 08:15:18;;;;;;;23.97;10.80;;;;;;;3.51;76.63;99366.98;125669;1097;104437;-72
2020/12/22 08:17:50;;;;;;;26.83;12.00;;;;;;;3.59;76.98;99348.30;125661;1096;104429;-73
2020/12/22 08:20:18;;;;;;;23.37;9.73;;;;;;;3.68;77.08;99347.91;125705;1097;104506;-74
2020/12/22 08:22:47;;;;;;;27.27;12.47;;;;;;;3.75;76.57;99360.81;125790;1097;104445;-74
2020/12/22 08:25:15;;;;;;;27.00;11.60;;;;;;;3.75;77.04;99353.80;125891;1097;104430;-72
2020/12/22 08:27:43;;;;;;;26.40;10.73;;;;;;;3.73;76.89;99356.47;125902;1101;105018;-72
2020/12/22 08:30:21;;;;;;;23.43;10.07;;;;;;;3.76;76.89;99355.51;125619;1096;104450;-72
2020/12/22 08:32:48;;;;;;;27.97;11.90;;;;;;;3.80;77.07;99343.95;125726;1096;104525;-72
2020/12/22 08:35:21;;;;;;;24.77;10.53;;;;;;;3.92;77.12;99354.88;125855;1102;104573;-75
2020/12/22 08:37:48;;;;;;;24.93;11.03;;;;;;;3.98;76.85;99344.97;125824;1101;104558;-76
2020/12/22 08:40:28;;;;;;;25.30;11.00;;;;;;;4.07;76.92;99338.46;125883;1102;104424;-76
2020/12/22 08:42:57;;;;;;;26.80;11.97;;;;;;;4.12;76.46;99339.13;126004;1101;104411;-75
2020/12/22 08:45:26;;;;;;;29.03;12.47;;;;;;;4.16;76.92;99324.92;125811;1101;104491;-75
2020/12/22 08:47:54;;;;;;;23.37;10.80;;;;;;;4.18;76.40;99314.30;126382;1102;104939;-76
2020/12/22 08:50:22;;;;;;;26.37;11.30;;;;;;;4.22;76.49;99310.62;125873;1101;104523;-75
2020/12/22 08:52:50;;;;;;;26.83;10.63;;;;;;;4.19;76.75;99302.02;126685;1102;104433;-77
2020/12/22 08:55:18;;;;;;;27.90;11.53;;;;;;;4.20;76.45;99301.94;126021;1102;104534;-72
2020/12/22 08:57:45;;;;;;;25.23;10.67;;;;;;;4.29;76.60;99298.04;125887;1102;104422;-79
2020/12/22 09:00:15;;;;;;;22.97;10.10;;;;;;;4.37;76.67;99305.63;125985;1101;104720;-73
2020/12/22 09:02:51;;;;;;;24.20;11.20;;;;;;;4.38;76.31;99295.02;125805;1101;104490;-71
2020/12/22 09:05:19;;;;;;;24.47;10.37;;;;;;;4.39;76.57;99283.56;125873;1101;104679;-74
2020/12/22 09:08:00;;;;;;;24.13;10.57;;;;;;;4.44;76.23;99291.27;125883;1102;104914;-70
2020/12/22 09:10:26;;;;;;;21.77;9.53;;;;;;;4.45;76.35;99288.56;125938;1101;104440;-73
2020/12/22 09:12:56;;;;;;;25.90;10.43;;;;;;;4.46;76.15;99290.27;125992;1096;104443;-74
2020/12/22 09:15:23;;;;;;;27.83;11.00;;;;;;;4.49;76.40;99283.16;125912;1102;104413;-72
2020/12/22 09:17:50;;;;;;;27.10;11.63;;;;;;;4.48;76.39;99274.42;125908;1101;104548;-73
2020/12/22 09:20:21;;;;;;;25.17;9.73;;;;;;;4.50;76.48;99262.00;125879;1102;104581;-72
2020/12/22 09:22:48;;;;;;;26.20;10.00;;;;;;;4.51;76.42;99266.34;125862;1097;104583;-71
2020/12/22 09:25:15;;;;;;;22.73;9.55;;;;;;;4.52;76.04;99254.05;125872;1101;104988;-71
2020/12/22 09:27:42;;;;;;;23.57;10.07;;;;;;;4.53;76.29;99246.06;125912;1100;104496;-74
2020/12/22 09:30:13;;;;;;;25.95;11.35;;;;;;;4.52;76.36;99251.41;125936;1102;104488;-72
2020/12/22 09:32:45;;;;;;;24.83;11.03;;;;;;;4.47;75.97;99228.77;125809;1101;104554;-71
2020/12/22 09:35:13;;;;;;;24.97;10.03;;;;;;;4.43;76.21;99206.12;125862;1096;104501;-74
2020/12/22 09:37:40;;;;;;;23.63;9.93;;;;;;;4.40;76.02;99232.59;125924;1101;104551;-72
2020/12/22 09:40:10;;;;;;;27.23;11.50;;;;;;;4.38;76.21;99225.70;126549;1102;104424;-72
2020/12/22 09:42:37;;;;;;;30.13;11.33;;;;;;;4.35;75.98;99217.93;125874;1102;104424;-73
2020/12/22 09:45:04;;;;;;;29.83;12.27;;;;;;;4.33;76.22;99220.61;125902;1101;104496;-72
2020/12/22 09:47:31;;;;;;;25.88;10.93;;;;;;;4.37;76.12;99221.35;125919;1102;104420;-74
2020/12/22 09:49:58;;;;;;;23.53;10.53;;;;;;;4.42;75.93;99217.58;125888;1101;104761;-73
2020/12/22 09:52:29;;;;;;;26.23;11.50;;;;;;;4.51;76.05;99213.66;125888;1102;104436;-74
2020/12/22 09:54:56;;;;;;;25.97;10.53;;;;;;;4.53;75.71;99213.61;125888;1101;104555;-75
2020/12/22 09:57:23;;;;;;;26.77;11.20;;;;;;;4.58;75.94;99211.62;125914;1101;104704;-75
2020/12/22 09:59:50;;;;;;;27.13;11.23;;;;;;;4.64;75.81;99207.84;125887;1097;103288;-75
2020/12/22 10:02:17;;;;;;;26.47;10.20;;;;;;;4.72;75.77;99197.80;125880;1096;105058;-73
2020/12/22 10:04:44;;;;;;;27.48;11.25;;;;;;;4.73;75.87;99194.25;125955;1101;104526;-73
2020/12/22 10:07:13;;;;;;;24.40;11.33;;;;;;;4.77;75.63;99193.19;125842;1101;104465;-75
2020/12/22 10:09:40;;;;;;;25.10;10.77;;;;;;;4.81;75.67;99191.24;125853;1101;104529;-74
2020/12/22 10:12:09;;;;;;;26.80;11.20;;;;;;;4.79;75.60;99180.79;125874;1101;104622;-74
2020/12/22 10:14:36;;;;;;;27.37;11.23;;;;;;;4.80;75.72;99177.23;125831;1101;104574;-74
2020/12/22 10:17:03;;;;;;;27.27;11.47;;;;;;;4.88;75.67;99171.58;125974;1101;104551;-74
2020/12/22 10:19:30;;;;;;;22.67;9.58;;;;;;;4.95;75.73;99173.00;125965;1101;104429;-73
2020/12/22 10:21:57;;;;;;;28.70;11.23;;;;;;;5.02;75.63;99182.33;125884;1101;104961;-71
2020/12/22 10:24:36;;;;;;;26.03;11.40;;;;;;;4.99;75.33;99171.93;125890;1101;104538;-72
2020/12/22 10:27:05;;;;;;;22.90;9.83;;;;;;;5.04;75.21;99167.30;125943;1101;104668;-71
2020/12/22 10:29:35;;;;;;;24.60;11.27;;;;;;;5.13;75.74;99170.39;125851;1101;104509;-73
2020/12/22 10:32:02;;;;;;;24.87;10.80;;;;;;;5.16;75.36;99163.20;125838;1101;104544;-73
2020/12/22 10:34:29;;;;;;;26.00;10.63;;;;;;;5.10;75.12;99159.98;125996;1101;104548;-73
2020/12/22 10:36:56;;;;;;;27.27;11.57;;;;;;;4.99;74.93;99169.30;125887;1096;104516;-74
2020/12/22 10:39:25;;;;;;;28.00;11.23;;;;;;;4.98;75.27;99148.27;125839;1094;104449;-74
2020/12/22 10:41:53;;;;;;;26.80;12.40;;;;;;;5.01;75.56;99162.17;125889;1101;104446;-71
2020/12/22 10:44:20;;;;;;;25.37;10.93;;;;;;;5.04;75.47;99151.48;125869;1101;104882;-73
2020/12/22 10:46:48;;;;;;;27.13;12.03;;;;;;;5.02;75.14;99149.83;125901;1101;104478;-73
2020/12/22 10:49:15;;;;;;;30.20;11.17;;;;;;;5.03;75.24;99127.80;125918;1096;104627;-72
2020/12/22 10:51:42;;;;;;;25.43;10.80;;;;;;;5.06;75.08;99125.02;125814;1101;104535;-71
2020/12/22 10:54:11;;;;;;;25.13;10.50;;;;;;;5.12;75.40;99118.58;127799;1093;102690;-73
2020/12/22 10:56:44;;;;;;;27.63;11.57;;;;;;;5.17;75.00;99120.08;125859;1101;104474;-73
2020/12/22 10:59:12;;;;;;;25.82;11.28;;;;;;;5.18;75.07;99120.92;126705;1101;104410;-75
2020/12/22 11:01:40;;;;;;;30.37;12.43;;;;;;;5.15;74.87;99127.21;125880;1093;104916;-75
2020/12/22 11:04:10;;;;;;;28.40;13.37;;;;;;;5.06;74.73;99117.11;125835;1093;104472;-76
2020/12/22 11:09:07;;;;;;;24.17;10.03;;;;;;;4.89;74.73;99118.78;125720;1102;104433;-73
2020/12/22 11:11:43;;;;;;;27.03;11.93;;;;;;;4.89;74.68;99124.05;125930;1093;104500;-74
2020/12/22 11:14:11;;;;;;;28.53;11.77;;;;;;;4.93;75.07;99116.86;125746;1096;104439;-73
2020/12/22 11:16:39;;;;;;;26.73;10.77;;;;;;;4.88;74.57;99124.14;125556;1093;104433;-71
2020/12/22 11:19:07;;;;;;;25.00;10.80;;;;;;;4.80;74.46;99106.07;125632;1101;104605;-71
2020/12/22 11:21:35;;;;;;;25.97;11.37;;;;;;;4.71;74.48;99109.14;125567;1093;104480;-71